sensor_id;sensor_type;location;lat;lon;timestamp;P1;durP1;ratioP1;P2;durP2;ratioP2
54123;SDS011;55741;53.252;5.788;2023-04-24T00:00:19;9.63;;;8.57;;
54123;SDS011;55741;53.252;5.788;2023-04-24T00:02:45;12.25;;;9.43;;
54123;SDS011;55741;53.252;5.788;2023-04-24T00:05:12;10.00;;;8.98;;
54123;SDS011;55741;53.252;5.788;2023-04-24T00:07:40;10.02;;;8.63;;
54123;SDS011;55741;53.252;5.788;2023-04-24T00:10:07;10.10;;;7.72;;
54123;SDS011;55741;53.252;5.788;2023-04-24T00:12:34;11.43;;;8.35;;
54123;SDS011;55741;53.252;5.788;2023-04-24T00:15:00;8.60;;;6.88;;
54123;SDS011;55741;53.252;5.788;2023-04-24T00:17:26;11.77;;;7.45;;
54123;SDS011;55741;53.252;5.788;2023-04-24T00:19:52;9.15;;;7.18;;
54123;SDS011;55741;53.252;5.788;2023-04-24T00:22:26;8.95;;;7.38;;
54123;SDS011;55741;53.252;5.788;2023-04-24T00:24:53;10.52;;;7.88;;
54123;SDS011;55741;53.252;5.788;2023-04-24T00:27:19;10.20;;;7.65;;
54123;SDS011;55741;53.252;5.788;2023-04-24T00:29:47;10.77;;;7.88;;
54123;SDS011;55741;53.252;5.788;2023-04-24T00:32:13;11.10;;;8.85;;
54123;SDS011;55741;53.252;5.788;2023-04-24T00:34:39;11.48;;;7.88;;
54123;SDS011;55741;53.252;5.788;2023-04-24T00:37:05;9.35;;;7.93;;
54123;SDS011;55741;53.252;5.788;2023-04-24T00:39:31;11.38;;;8.10;;
54123;SDS011;55741;53.252;5.788;2023-04-24T00:41:57;11.02;;;8.15;;
54123;SDS011;55741;53.252;5.788;2023-04-24T00:44:24;11.13;;;8.52;;
54123;SDS011;55741;53.252;5.788;2023-04-24T00:46:50;10.20;;;8.57;;
54123;SDS011;55741;53.252;5.788;2023-04-24T00:49:19;9.85;;;7.95;;
54123;SDS011;55741;53.252;5.788;2023-04-24T00:51:49;10.23;;;7.85;;
54123;SDS011;55741;53.252;5.788;2023-04-24T00:54:16;10.85;;;8.63;;
54123;SDS011;55741;53.252;5.788;2023-04-24T00:56:43;11.45;;;9.52;;
54123;SDS011;55741;53.252;5.788;2023-04-24T00:59:11;13.07;;;9.48;;
54123;SDS011;55741;53.252;5.788;2023-04-24T01:01:37;11.05;;;9.05;;
54123;SDS011;55741;53.252;5.788;2023-04-24T01:04:07;11.93;;;8.25;;
54123;SDS011;55741;53.252;5.788;2023-04-24T01:06:34;9.30;;;8.30;;
54123;SDS011;55741;53.252;5.788;2023-04-24T01:09:00;12.98;;;8.00;;
54123;SDS011;55741;53.252;5.788;2023-04-24T01:11:26;13.63;;;8.48;;
54123;SDS011;55741;53.252;5.788;2023-04-24T01:13:51;13.35;;;8.70;;
54123;SDS011;55741;53.252;5.788;2023-04-24T01:16:18;9.02;;;7.20;;
54123;SDS011;55741;53.252;5.788;2023-04-24T01:18:46;12.80;;;8.25;;
54123;SDS011;55741;53.252;5.788;2023-04-24T01:21:13;10.55;;;6.65;;
54123;SDS011;55741;53.252;5.788;2023-04-24T01:23:42;8.82;;;6.45;;
54123;SDS011;55741;53.252;5.788;2023-04-24T01:26:09;10.40;;;6.70;;
54123;SDS011;55741;53.252;5.788;2023-04-24T01:28:35;9.45;;;5.97;;
54123;SDS011;55741;53.252;5.788;2023-04-24T01:31:03;9.25;;;6.00;;
54123;SDS011;55741;53.252;5.788;2023-04-24T01:33:29;10.80;;;7.05;;
54123;SDS011;55741;53.252;5.788;2023-04-24T01:35:55;9.98;;;6.78;;
54123;SDS011;55741;53.252;5.788;2023-04-24T01:38:22;8.73;;;7.82;;
54123;SDS011;55741;53.252;5.788;2023-04-24T01:40:49;11.18;;;8.20;;
54123;SDS011;55741;53.252;5.788;2023-04-24T01:43:15;9.52;;;7.40;;
54123;SDS011;55741;53.252;5.788;2023-04-24T01:45:41;11.70;;;8.25;;
54123;SDS011;55741;53.252;5.788;2023-04-24T01:48:07;13.85;;;8.30;;
54123;SDS011;55741;53.252;5.788;2023-04-24T01:50:33;13.38;;;9.18;;
54123;SDS011;55741;53.252;5.788;2023-04-24T01:52:59;14.55;;;9.10;;
54123;SDS011;55741;53.252;5.788;2023-04-24T01:55:25;12.10;;;9.25;;
54123;SDS011;55741;53.252;5.788;2023-04-24T01:57:52;11.15;;;9.63;;
54123;SDS011;55741;53.252;5.788;2023-04-24T02:00:20;14.13;;;9.50;;
54123;SDS011;55741;53.252;5.788;2023-04-24T02:02:46;11.40;;;9.50;;
54123;SDS011;55741;53.252;5.788;2023-04-24T02:05:12;10.45;;;9.35;;
54123;SDS011;55741;53.252;5.788;2023-04-24T02:07:37;11.93;;;9.65;;
54123;SDS011;55741;53.252;5.788;2023-04-24T02:10:03;12.50;;;10.13;;
54123;SDS011;55741;53.252;5.788;2023-04-24T02:12:30;10.98;;;8.80;;
54123;SDS011;55741;53.252;5.788;2023-04-24T02:14:55;10.95;;;7.72;;
54123;SDS011;55741;53.252;5.788;2023-04-24T02:17:21;14.40;;;10.63;;
54123;SDS011;55741;53.252;5.788;2023-04-24T02:19:47;16.27;;;13.63;;
54123;SDS011;55741;53.252;5.788;2023-04-24T02:22:13;14.48;;;10.05;;
54123;SDS011;55741;53.252;5.788;2023-04-24T02:24:39;10.88;;;7.65;;
54123;SDS011;55741;53.252;5.788;2023-04-24T02:27:05;9.45;;;5.70;;
54123;SDS011;55741;53.252;5.788;2023-04-24T02:29:31;9.43;;;4.35;;
54123;SDS011;55741;53.252;5.788;2023-04-24T02:31:59;5.63;;;4.07;;
54123;SDS011;55741;53.252;5.788;2023-04-24T02:34:24;5.15;;;4.05;;
54123;SDS011;55741;53.252;5.788;2023-04-24T02:36:50;8.70;;;4.50;;
54123;SDS011;55741;53.252;5.788;2023-04-24T02:39:18;5.53;;;4.20;;
54123;SDS011;55741;53.252;5.788;2023-04-24T02:41:44;5.55;;;4.00;;
54123;SDS011;55741;53.252;5.788;2023-04-24T02:44:10;6.53;;;4.30;;
54123;SDS011;55741;53.252;5.788;2023-04-24T02:46:36;5.60;;;3.55;;
54123;SDS011;55741;53.252;5.788;2023-04-24T02:49:02;3.80;;;2.40;;
54123;SDS011;55741;53.252;5.788;2023-04-24T02:51:28;3.35;;;2.20;;
54123;SDS011;55741;53.252;5.788;2023-04-24T02:53:54;3.17;;;2.22;;
54123;SDS011;55741;53.252;5.788;2023-04-24T02:56:20;5.68;;;2.30;;
54123;SDS011;55741;53.252;5.788;2023-04-24T02:58:46;3.65;;;2.00;;
54123;SDS011;55741;53.252;5.788;2023-04-24T03:01:12;4.15;;;1.95;;
54123;SDS011;55741;53.252;5.788;2023-04-24T03:03:38;4.63;;;1.90;;
54123;SDS011;55741;53.252;5.788;2023-04-24T03:06:04;5.80;;;1.90;;
54123;SDS011;55741;53.252;5.788;2023-04-24T03:08:31;4.03;;;2.10;;
54123;SDS011;55741;53.252;5.788;2023-04-24T03:10:57;2.80;;;1.63;;
54123;SDS011;55741;53.252;5.788;2023-04-24T03:13:23;3.08;;;1.88;;
54123;SDS011;55741;53.252;5.788;2023-04-24T03:15:49;4.10;;;2.08;;
54123;SDS011;55741;53.252;5.788;2023-04-24T03:18:14;3.72;;;1.90;;
54123;SDS011;55741;53.252;5.788;2023-04-24T03:20:40;4.53;;;2.50;;
54123;SDS011;55741;53.252;5.788;2023-04-24T03:23:06;4.80;;;2.30;;
54123;SDS011;55741;53.252;5.788;2023-04-24T03:25:32;4.93;;;2.55;;
54123;SDS011;55741;53.252;5.788;2023-04-24T03:27:58;5.70;;;3.13;;
54123;SDS011;55741;53.252;5.788;2023-04-24T03:30:23;6.15;;;3.13;;
54123;SDS011;55741;53.252;5.788;2023-04-24T03:32:51;8.45;;;3.92;;
54123;SDS011;55741;53.252;5.788;2023-04-24T03:35:17;7.32;;;3.80;;
54123;SDS011;55741;53.252;5.788;2023-04-24T03:37:42;8.73;;;4.90;;
54123;SDS011;55741;53.252;5.788;2023-04-24T03:40:08;5.72;;;4.63;;
54123;SDS011;55741;53.252;5.788;2023-04-24T03:42:34;5.13;;;4.28;;
54123;SDS011;55741;53.252;5.788;2023-04-24T03:45:00;5.90;;;4.07;;
54123;SDS011;55741;53.252;5.788;2023-04-24T03:47:26;4.88;;;3.05;;
54123;SDS011;55741;53.252;5.788;2023-04-24T03:49:52;4.45;;;2.40;;
54123;SDS011;55741;53.252;5.788;2023-04-24T03:52:19;5.60;;;2.80;;
54123;SDS011;55741;53.252;5.788;2023-04-24T03:54:45;4.13;;;2.63;;
54123;SDS011;55741;53.252;5.788;2023-04-24T03:57:11;4.93;;;2.42;;
54123;SDS011;55741;53.252;5.788;2023-04-24T03:59:36;5.10;;;2.42;;
54123;SDS011;55741;53.252;5.788;2023-04-24T04:02:02;6.60;;;2.28;;
54123;SDS011;55741;53.252;5.788;2023-04-24T04:04:28;6.13;;;2.55;;
54123;SDS011;55741;53.252;5.788;2023-04-24T04:06:54;6.07;;;3.53;;
54123;SDS011;55741;53.252;5.788;2023-04-24T04:09:19;5.95;;;4.13;;
54123;SDS011;55741;53.252;5.788;2023-04-24T04:11:45;9.60;;;5.50;;
54123;SDS011;55741;53.252;5.788;2023-04-24T04:14:11;8.30;;;6.32;;
54123;SDS011;55741;53.252;5.788;2023-04-24T04:16:37;13.80;;;7.40;;
54123;SDS011;55741;53.252;5.788;2023-04-24T04:19:03;14.63;;;6.90;;
54123;SDS011;55741;53.252;5.788;2023-04-24T04:21:30;10.18;;;6.00;;
54123;SDS011;55741;53.252;5.788;2023-04-24T04:23:57;8.18;;;5.82;;
54123;SDS011;55741;53.252;5.788;2023-04-24T04:26:23;8.55;;;6.38;;
54123;SDS011;55741;53.252;5.788;2023-04-24T04:28:51;7.70;;;4.32;;
54123;SDS011;55741;53.252;5.788;2023-04-24T04:31:18;6.88;;;4.00;;
54123;SDS011;55741;53.252;5.788;2023-04-24T04:33:46;6.03;;;3.78;;
54123;SDS011;55741;53.252;5.788;2023-04-24T04:36:12;6.03;;;4.00;;
54123;SDS011;55741;53.252;5.788;2023-04-24T04:38:38;6.65;;;4.38;;
54123;SDS011;55741;53.252;5.788;2023-04-24T04:41:05;7.80;;;5.40;;
54123;SDS011;55741;53.252;5.788;2023-04-24T04:43:32;10.25;;;6.95;;
54123;SDS011;55741;53.252;5.788;2023-04-24T04:45:59;17.30;;;9.27;;
54123;SDS011;55741;53.252;5.788;2023-04-24T04:48:26;14.38;;;9.95;;
54123;SDS011;55741;53.252;5.788;2023-04-24T04:50:52;17.63;;;9.98;;
54123;SDS011;55741;53.252;5.788;2023-04-24T04:53:18;14.80;;;9.40;;
54123;SDS011;55741;53.252;5.788;2023-04-24T04:55:44;17.13;;;11.60;;
54123;SDS011;55741;53.252;5.788;2023-04-24T04:58:11;14.98;;;10.20;;
54123;SDS011;55741;53.252;5.788;2023-04-24T05:00:38;15.98;;;10.98;;
54123;SDS011;55741;53.252;5.788;2023-04-24T05:03:04;16.23;;;10.25;;
54123;SDS011;55741;53.252;5.788;2023-04-24T05:05:30;12.18;;;8.98;;
54123;SDS011;55741;53.252;5.788;2023-04-24T05:07:56;8.70;;;6.72;;
54123;SDS011;55741;53.252;5.788;2023-04-24T05:10:22;8.43;;;5.57;;
54123;SDS011;55741;53.252;5.788;2023-04-24T05:12:47;8.15;;;3.40;;
54123;SDS011;55741;53.252;5.788;2023-04-24T05:15:14;5.90;;;2.90;;
54123;SDS011;55741;53.252;5.788;2023-04-24T05:17:40;4.10;;;2.85;;
54123;SDS011;55741;53.252;5.788;2023-04-24T05:20:06;5.47;;;3.28;;
54123;SDS011;55741;53.252;5.788;2023-04-24T05:22:33;7.68;;;3.22;;
54123;SDS011;55741;53.252;5.788;2023-04-24T05:24:58;5.95;;;3.03;;
54123;SDS011;55741;53.252;5.788;2023-04-24T05:27:24;6.28;;;2.90;;
54123;SDS011;55741;53.252;5.788;2023-04-24T05:29:50;10.30;;;3.83;;
54123;SDS011;55741;53.252;5.788;2023-04-24T05:32:16;9.25;;;3.78;;
54123;SDS011;55741;53.252;5.788;2023-04-24T05:34:43;6.45;;;3.88;;
54123;SDS011;55741;53.252;5.788;2023-04-24T05:37:10;7.78;;;4.30;;
54123;SDS011;55741;53.252;5.788;2023-04-24T05:39:36;8.77;;;3.58;;
54123;SDS011;55741;53.252;5.788;2023-04-24T05:42:02;9.88;;;4.05;;
54123;SDS011;55741;53.252;5.788;2023-04-24T05:44:29;6.50;;;3.90;;
54123;SDS011;55741;53.252;5.788;2023-04-24T05:46:55;6.15;;;2.95;;
54123;SDS011;55741;53.252;5.788;2023-04-24T05:49:22;5.80;;;2.47;;
54123;SDS011;55741;53.252;5.788;2023-04-24T05:51:48;7.97;;;2.58;;
54123;SDS011;55741;53.252;5.788;2023-04-24T05:54:14;6.60;;;2.85;;
54123;SDS011;55741;53.252;5.788;2023-04-24T05:56:40;5.50;;;2.65;;
54123;SDS011;55741;53.252;5.788;2023-04-24T05:59:06;6.40;;;2.72;;
54123;SDS011;55741;53.252;5.788;2023-04-24T06:01:32;5.82;;;2.78;;
54123;SDS011;55741;53.252;5.788;2023-04-24T06:03:58;8.18;;;3.15;;
54123;SDS011;55741;53.252;5.788;2023-04-24T06:06:24;6.70;;;3.03;;
54123;SDS011;55741;53.252;5.788;2023-04-24T06:08:51;6.60;;;2.80;;
54123;SDS011;55741;53.252;5.788;2023-04-24T06:11:17;7.32;;;2.72;;
54123;SDS011;55741;53.252;5.788;2023-04-24T06:13:43;5.93;;;2.20;;
54123;SDS011;55741;53.252;5.788;2023-04-24T06:16:08;7.95;;;2.85;;
54123;SDS011;55741;53.252;5.788;2023-04-24T06:18:34;8.43;;;2.70;;
54123;SDS011;55741;53.252;5.788;2023-04-24T06:21:00;9.75;;;3.28;;
54123;SDS011;55741;53.252;5.788;2023-04-24T06:23:26;12.07;;;4.63;;
54123;SDS011;55741;53.252;5.788;2023-04-24T06:25:52;11.57;;;4.90;;
54123;SDS011;55741;53.252;5.788;2023-04-24T06:28:18;13.27;;;5.85;;
54123;SDS011;55741;53.252;5.788;2023-04-24T06:30:44;15.38;;;9.00;;
54123;SDS011;55741;53.252;5.788;2023-04-24T06:33:10;17.08;;;10.45;;
54123;SDS011;55741;53.252;5.788;2023-04-24T06:35:37;21.50;;;10.93;;
54123;SDS011;55741;53.252;5.788;2023-04-24T06:38:03;22.27;;;13.13;;
54123;SDS011;55741;53.252;5.788;2023-04-24T06:40:29;26.55;;;14.45;;
54123;SDS011;55741;53.252;5.788;2023-04-24T06:42:55;20.92;;;13.50;;
54123;SDS011;55741;53.252;5.788;2023-04-24T06:45:23;23.50;;;12.93;;
54123;SDS011;55741;53.252;5.788;2023-04-24T06:47:48;25.48;;;13.52;;
54123;SDS011;55741;53.252;5.788;2023-04-24T06:50:14;21.40;;;12.88;;
54123;SDS011;55741;53.252;5.788;2023-04-24T06:52:40;16.80;;;11.15;;
54123;SDS011;55741;53.252;5.788;2023-04-24T06:55:06;13.45;;;9.40;;
54123;SDS011;55741;53.252;5.788;2023-04-24T06:57:32;21.90;;;11.15;;
54123;SDS011;55741;53.252;5.788;2023-04-24T06:59:58;20.13;;;11.20;;
54123;SDS011;55741;53.252;5.788;2023-04-24T07:02:24;25.77;;;13.07;;
54123;SDS011;55741;53.252;5.788;2023-04-24T07:04:50;22.25;;;14.00;;
54123;SDS011;55741;53.252;5.788;2023-04-24T07:07:16;35.35;;;15.45;;
54123;SDS011;55741;53.252;5.788;2023-04-24T07:09:42;22.55;;;14.00;;
54123;SDS011;55741;53.252;5.788;2023-04-24T07:12:09;27.95;;;14.15;;
54123;SDS011;55741;53.252;5.788;2023-04-24T07:14:36;24.55;;;15.50;;
54123;SDS011;55741;53.252;5.788;2023-04-24T07:17:05;20.25;;;14.10;;
54123;SDS011;55741;53.252;5.788;2023-04-24T07:19:33;25.98;;;15.65;;
54123;SDS011;55741;53.252;5.788;2023-04-24T07:22:00;25.05;;;15.75;;
54123;SDS011;55741;53.252;5.788;2023-04-24T07:24:27;22.55;;;14.35;;
54123;SDS011;55741;53.252;5.788;2023-04-24T07:26:53;19.10;;;12.82;;
54123;SDS011;55741;53.252;5.788;2023-04-24T07:29:20;24.23;;;12.75;;
54123;SDS011;55741;53.252;5.788;2023-04-24T07:31:46;16.83;;;10.38;;
54123;SDS011;55741;53.252;5.788;2023-04-24T07:34:12;13.65;;;8.85;;
54123;SDS011;55741;53.252;5.788;2023-04-24T07:36:40;17.38;;;8.18;;
54123;SDS011;55741;53.252;5.788;2023-04-24T07:39:06;19.48;;;8.02;;
54123;SDS011;55741;53.252;5.788;2023-04-24T07:41:33;13.82;;;7.75;;
54123;SDS011;55741;53.252;5.788;2023-04-24T07:43:59;15.82;;;7.38;;
54123;SDS011;55741;53.252;5.788;2023-04-24T07:46:25;11.88;;;7.15;;
54123;SDS011;55741;53.252;5.788;2023-04-24T07:48:55;20.15;;;7.20;;
54123;SDS011;55741;53.252;5.788;2023-04-24T07:51:20;11.90;;;7.10;;
54123;SDS011;55741;53.252;5.788;2023-04-24T07:53:47;12.93;;;7.28;;
54123;SDS011;55741;53.252;5.788;2023-04-24T07:56:13;13.55;;;7.35;;
54123;SDS011;55741;53.252;5.788;2023-04-24T07:58:38;11.25;;;6.70;;
54123;SDS011;55741;53.252;5.788;2023-04-24T08:01:05;16.27;;;7.38;;
54123;SDS011;55741;53.252;5.788;2023-04-24T08:03:31;12.20;;;6.45;;
54123;SDS011;55741;53.252;5.788;2023-04-24T08:05:56;16.60;;;7.43;;
54123;SDS011;55741;53.252;5.788;2023-04-24T08:08:22;14.63;;;7.97;;
54123;SDS011;55741;53.252;5.788;2023-04-24T08:10:48;20.45;;;7.70;;
54123;SDS011;55741;53.252;5.788;2023-04-24T08:13:15;15.88;;;6.82;;
54123;SDS011;55741;53.252;5.788;2023-04-24T08:15:40;12.85;;;6.82;;
54123;SDS011;55741;53.252;5.788;2023-04-24T08:18:06;16.05;;;7.75;;
54123;SDS011;55741;53.252;5.788;2023-04-24T08:20:32;14.55;;;7.65;;
54123;SDS011;55741;53.252;5.788;2023-04-24T08:22:58;18.35;;;6.25;;
54123;SDS011;55741;53.252;5.788;2023-04-24T08:25:24;13.25;;;5.68;;
54123;SDS011;55741;53.252;5.788;2023-04-24T08:27:50;16.33;;;5.55;;
54123;SDS011;55741;53.252;5.788;2023-04-24T08:30:17;21.65;;;7.32;;
54123;SDS011;55741;53.252;5.788;2023-04-24T08:32:43;15.43;;;5.65;;
54123;SDS011;55741;53.252;5.788;2023-04-24T08:35:09;14.32;;;5.65;;
54123;SDS011;55741;53.252;5.788;2023-04-24T08:37:37;14.63;;;5.78;;
54123;SDS011;55741;53.252;5.788;2023-04-24T08:40:05;15.43;;;5.03;;
54123;SDS011;55741;53.252;5.788;2023-04-24T08:42:35;19.33;;;4.82;;
54123;SDS011;55741;53.252;5.788;2023-04-24T08:45:02;12.02;;;4.78;;
54123;SDS011;55741;53.252;5.788;2023-04-24T08:47:28;10.30;;;4.13;;
54123;SDS011;55741;53.252;5.788;2023-04-24T08:49:56;13.65;;;3.97;;
54123;SDS011;55741;53.252;5.788;2023-04-24T08:52:25;10.90;;;3.38;;
54123;SDS011;55741;53.252;5.788;2023-04-24T08:54:51;11.52;;;4.13;;
54123;SDS011;55741;53.252;5.788;2023-04-24T08:57:18;14.70;;;3.20;;
54123;SDS011;55741;53.252;5.788;2023-04-24T08:59:44;15.10;;;3.95;;
54123;SDS011;55741;53.252;5.788;2023-04-24T09:02:12;11.82;;;4.35;;
54123;SDS011;55741;53.252;5.788;2023-04-24T09:04:39;15.60;;;5.47;;
54123;SDS011;55741;53.252;5.788;2023-04-24T09:07:06;16.70;;;4.25;;
54123;SDS011;55741;53.252;5.788;2023-04-24T09:09:32;9.93;;;3.28;;
54123;SDS011;55741;53.252;5.788;2023-04-24T09:11:59;14.95;;;4.20;;
54123;SDS011;55741;53.252;5.788;2023-04-24T09:14:26;21.13;;;4.50;;
54123;SDS011;55741;53.252;5.788;2023-04-24T09:16:53;19.42;;;4.25;;
54123;SDS011;55741;53.252;5.788;2023-04-24T09:19:18;11.43;;;4.00;;
54123;SDS011;55741;53.252;5.788;2023-04-24T09:21:46;13.38;;;3.92;;
54123;SDS011;55741;53.252;5.788;2023-04-24T09:24:16;13.13;;;3.00;;
54123;SDS011;55741;53.252;5.788;2023-04-24T09:26:44;17.10;;;3.17;;
54123;SDS011;55741;53.252;5.788;2023-04-24T09:29:16;16.58;;;2.95;;
54123;SDS011;55741;53.252;5.788;2023-04-24T09:31:44;10.73;;;3.00;;
54123;SDS011;55741;53.252;5.788;2023-04-24T09:34:10;13.90;;;3.75;;
54123;SDS011;55741;53.252;5.788;2023-04-24T09:36:38;15.93;;;4.00;;
54123;SDS011;55741;53.252;5.788;2023-04-24T09:39:08;13.65;;;4.40;;
54123;SDS011;55741;53.252;5.788;2023-04-24T09:44:18;13.35;;;3.00;;
54123;SDS011;55741;53.252;5.788;2023-04-24T09:46:51;15.95;;;3.85;;
54123;SDS011;55741;53.252;5.788;2023-04-24T09:49:22;15.95;;;3.92;;
54123;SDS011;55741;53.252;5.788;2023-04-24T09:52:05;14.45;;;3.58;;
54123;SDS011;55741;53.252;5.788;2023-04-24T09:54:32;15.82;;;3.28;;
54123;SDS011;55741;53.252;5.788;2023-04-24T09:56:58;12.63;;;3.35;;
54123;SDS011;55741;53.252;5.788;2023-04-24T09:59:27;14.57;;;3.33;;
54123;SDS011;55741;53.252;5.788;2023-04-24T10:01:53;13.30;;;3.15;;
54123;SDS011;55741;53.252;5.788;2023-04-24T10:06:48;12.90;;;3.40;;
54123;SDS011;55741;53.252;5.788;2023-04-24T10:09:19;8.70;;;3.38;;
54123;SDS011;55741;53.252;5.788;2023-04-24T10:11:47;13.48;;;3.30;;
54123;SDS011;55741;53.252;5.788;2023-04-24T10:14:15;9.80;;;3.03;;
54123;SDS011;55741;53.252;5.788;2023-04-24T10:16:49;9.88;;;2.22;;
54123;SDS011;55741;53.252;5.788;2023-04-24T10:19:18;11.63;;;2.72;;
54123;SDS011;55741;53.252;5.788;2023-04-24T10:21:44;15.23;;;3.60;;
54123;SDS011;55741;53.252;5.788;2023-04-24T10:24:13;15.95;;;3.30;;
54123;SDS011;55741;53.252;5.788;2023-04-24T10:26:41;16.42;;;2.90;;
54123;SDS011;55741;53.252;5.788;2023-04-24T10:29:07;10.43;;;2.78;;
54123;SDS011;55741;53.252;5.788;2023-04-24T10:31:35;13.93;;;2.60;;
54123;SDS011;55741;53.252;5.788;2023-04-24T10:34:02;11.35;;;2.97;;
54123;SDS011;55741;53.252;5.788;2023-04-24T10:36:29;14.63;;;3.58;;
54123;SDS011;55741;53.252;5.788;2023-04-24T10:38:58;13.55;;;3.05;;
54123;SDS011;55741;53.252;5.788;2023-04-24T10:41:28;11.82;;;2.35;;
54123;SDS011;55741;53.252;5.788;2023-04-24T10:44:08;14.23;;;2.58;;
54123;SDS011;55741;53.252;5.788;2023-04-24T10:46:36;11.52;;;3.05;;
54123;SDS011;55741;53.252;5.788;2023-04-24T10:49:06;16.67;;;2.58;;
54123;SDS011;55741;53.252;5.788;2023-04-24T10:51:48;11.30;;;2.63;;
54123;SDS011;55741;53.252;5.788;2023-04-24T10:54:22;5.47;;;2.33;;
54123;SDS011;55741;53.252;5.788;2023-04-24T10:56:48;6.00;;;2.33;;
54123;SDS011;55741;53.252;5.788;2023-04-24T10:59:26;7.28;;;2.13;;
54123;SDS011;55741;53.252;5.788;2023-04-24T11:01:53;9.20;;;2.58;;
54123;SDS011;55741;53.252;5.788;2023-04-24T11:04:32;12.63;;;2.58;;
54123;SDS011;55741;53.252;5.788;2023-04-24T11:06:58;7.22;;;2.00;;
54123;SDS011;55741;53.252;5.788;2023-04-24T11:09:27;7.82;;;2.20;;
54123;SDS011;55741;53.252;5.788;2023-04-24T11:12:02;6.43;;;1.83;;
54123;SDS011;55741;53.252;5.788;2023-04-24T11:14:59;5.35;;;1.73;;
54123;SDS011;55741;53.252;5.788;2023-04-24T11:17:34;8.52;;;1.50;;
54123;SDS011;55741;53.252;5.788;2023-04-24T11:20:15;6.95;;;1.55;;
54123;SDS011;55741;53.252;5.788;2023-04-24T11:22:42;6.93;;;1.58;;
54123;SDS011;55741;53.252;5.788;2023-04-24T11:25:09;5.85;;;1.83;;
54123;SDS011;55741;53.252;5.788;2023-04-24T11:27:40;9.75;;;2.70;;
54123;SDS011;55741;53.252;5.788;2023-04-24T11:30:07;5.65;;;1.75;;
54123;SDS011;55741;53.252;5.788;2023-04-24T11:32:39;4.45;;;1.30;;
54123;SDS011;55741;53.252;5.788;2023-04-24T11:37:43;6.82;;;1.70;;
54123;SDS011;55741;53.252;5.788;2023-04-24T11:40:17;9.10;;;1.85;;
54123;SDS011;55741;53.252;5.788;2023-04-24T11:42:50;9.43;;;2.30;;
54123;SDS011;55741;53.252;5.788;2023-04-24T11:45:18;7.63;;;1.80;;
54123;SDS011;55741;53.252;5.788;2023-04-24T11:47:47;10.15;;;2.13;;
54123;SDS011;55741;53.252;5.788;2023-04-24T11:50:14;12.27;;;2.28;;
54123;SDS011;55741;53.252;5.788;2023-04-24T11:52:42;8.55;;;2.08;;
54123;SDS011;55741;53.252;5.788;2023-04-24T11:57:48;6.03;;;1.67;;
54123;SDS011;55741;53.252;5.788;2023-04-24T12:00:22;9.63;;;2.25;;
54123;SDS011;55741;53.252;5.788;2023-04-24T12:03:08;7.88;;;1.80;;
54123;SDS011;55741;53.252;5.788;2023-04-24T12:05:35;8.13;;;1.20;;
54123;SDS011;55741;53.252;5.788;2023-04-24T12:08:00;8.00;;;1.77;;
54123;SDS011;55741;53.252;5.788;2023-04-24T12:10:27;13.68;;;1.65;;
54123;SDS011;55741;53.252;5.788;2023-04-24T12:12:56;7.50;;;1.85;;
54123;SDS011;55741;53.252;5.788;2023-04-24T12:15:23;5.07;;;1.38;;
54123;SDS011;55741;53.252;5.788;2023-04-24T12:17:50;11.70;;;1.60;;
54123;SDS011;55741;53.252;5.788;2023-04-24T12:20:17;8.45;;;2.17;;
54123;SDS011;55741;53.252;5.788;2023-04-24T12:25:22;6.70;;;1.60;;
54123;SDS011;55741;53.252;5.788;2023-04-24T12:27:53;6.65;;;1.30;;
54123;SDS011;55741;53.252;5.788;2023-04-24T12:30:20;6.80;;;2.08;;
54123;SDS011;55741;53.252;5.788;2023-04-24T12:32:51;2.60;;;1.13;;
54123;SDS011;55741;53.252;5.788;2023-04-24T12:35:21;2.28;;;0.93;;
54123;SDS011;55741;53.252;5.788;2023-04-24T12:37:48;8.05;;;1.42;;
54123;SDS011;55741;53.252;5.788;2023-04-24T12:40:14;10.20;;;1.98;;
54123;SDS011;55741;53.252;5.788;2023-04-24T12:42:42;8.73;;;1.45;;
54123;SDS011;55741;53.252;5.788;2023-04-24T12:45:19;8.35;;;1.73;;
54123;SDS011;55741;53.252;5.788;2023-04-24T12:47:48;6.40;;;1.70;;
54123;SDS011;55741;53.252;5.788;2023-04-24T12:50:14;10.13;;;2.03;;
54123;SDS011;55741;53.252;5.788;2023-04-24T12:52:41;9.32;;;1.95;;
54123;SDS011;55741;53.252;5.788;2023-04-24T12:55:07;7.43;;;2.03;;
54123;SDS011;55741;53.252;5.788;2023-04-24T12:57:34;5.90;;;2.05;;
54123;SDS011;55741;53.252;5.788;2023-04-24T13:00:01;11.05;;;3.20;;
54123;SDS011;55741;53.252;5.788;2023-04-24T13:02:29;13.23;;;2.67;;
54123;SDS011;55741;53.252;5.788;2023-04-24T13:04:58;18.27;;;3.42;;
54123;SDS011;55741;53.252;5.788;2023-04-24T13:07:25;11.88;;;2.35;;
54123;SDS011;55741;53.252;5.788;2023-04-24T13:09:51;14.43;;;3.17;;
54123;SDS011;55741;53.252;5.788;2023-04-24T13:12:18;10.98;;;3.15;;
54123;SDS011;55741;53.252;5.788;2023-04-24T13:14:44;13.32;;;3.10;;
54123;SDS011;55741;53.252;5.788;2023-04-24T13:17:11;17.88;;;2.97;;
54123;SDS011;55741;53.252;5.788;2023-04-24T13:19:41;16.15;;;3.30;;
54123;SDS011;55741;53.252;5.788;2023-04-24T13:22:09;13.88;;;2.95;;
54123;SDS011;55741;53.252;5.788;2023-04-24T13:24:36;10.15;;;2.70;;
54123;SDS011;55741;53.252;5.788;2023-04-24T13:27:03;17.67;;;4.28;;
54123;SDS011;55741;53.252;5.788;2023-04-24T13:29:29;12.57;;;3.45;;
54123;SDS011;55741;53.252;5.788;2023-04-24T13:31:55;8.95;;;2.50;;
54123;SDS011;55741;53.252;5.788;2023-04-24T13:34:21;10.95;;;2.90;;
54123;SDS011;55741;53.252;5.788;2023-04-24T13:36:52;9.93;;;2.25;;
54123;SDS011;55741;53.252;5.788;2023-04-24T13:39:18;10.27;;;2.55;;
54123;SDS011;55741;53.252;5.788;2023-04-24T13:41:44;14.68;;;2.72;;
54123;SDS011;55741;53.252;5.788;2023-04-24T13:44:12;12.57;;;2.88;;
54123;SDS011;55741;53.252;5.788;2023-04-24T13:46:41;13.00;;;2.75;;
54123;SDS011;55741;53.252;5.788;2023-04-24T13:49:09;12.25;;;2.90;;
54123;SDS011;55741;53.252;5.788;2023-04-24T13:51:35;12.90;;;2.90;;
54123;SDS011;55741;53.252;5.788;2023-04-24T13:54:01;10.10;;;2.60;;
54123;SDS011;55741;53.252;5.788;2023-04-24T13:56:27;17.27;;;2.95;;
54123;SDS011;55741;53.252;5.788;2023-04-24T13:58:53;14.38;;;4.10;;
54123;SDS011;55741;53.252;5.788;2023-04-24T14:01:21;15.43;;;3.40;;
54123;SDS011;55741;53.252;5.788;2023-04-24T14:03:51;18.10;;;3.92;;
54123;SDS011;55741;53.252;5.788;2023-04-24T14:06:18;14.70;;;3.60;;
54123;SDS011;55741;53.252;5.788;2023-04-24T14:08:47;13.73;;;3.83;;
54123;SDS011;55741;53.252;5.788;2023-04-24T14:11:13;13.63;;;3.45;;
54123;SDS011;55741;53.252;5.788;2023-04-24T14:13:40;15.18;;;3.70;;
54123;SDS011;55741;53.252;5.788;2023-04-24T14:16:06;20.92;;;3.83;;
54123;SDS011;55741;53.252;5.788;2023-04-24T14:18:32;18.85;;;4.18;;
54123;SDS011;55741;53.252;5.788;2023-04-24T14:20:58;14.82;;;3.85;;
54123;SDS011;55741;53.252;5.788;2023-04-24T14:23:24;16.52;;;3.42;;
54123;SDS011;55741;53.252;5.788;2023-04-24T14:25:50;17.33;;;3.70;;
54123;SDS011;55741;53.252;5.788;2023-04-24T14:28:17;12.10;;;3.75;;
54123;SDS011;55741;53.252;5.788;2023-04-24T14:30:47;15.30;;;3.80;;
54123;SDS011;55741;53.252;5.788;2023-04-24T14:33:13;16.42;;;4.40;;
54123;SDS011;55741;53.252;5.788;2023-04-24T14:35:40;14.05;;;3.85;;
54123;SDS011;55741;53.252;5.788;2023-04-24T14:38:09;14.80;;;4.78;;
54123;SDS011;55741;53.252;5.788;2023-04-24T14:40:35;16.80;;;3.40;;
54123;SDS011;55741;53.252;5.788;2023-04-24T14:43:02;14.52;;;3.40;;
54123;SDS011;55741;53.252;5.788;2023-04-24T14:45:28;13.00;;;3.50;;
54123;SDS011;55741;53.252;5.788;2023-04-24T14:47:56;15.90;;;4.22;;
54123;SDS011;55741;53.252;5.788;2023-04-24T14:50:22;15.35;;;4.35;;